Terminal Aerodrome Forecast
Issued by NWS

Home | Current Version | Previous Version | Text Only | Print | Product List | Glossary On
Versions: 1 2 3 4 5 6 7 8 9 10 11 12 13 14 15 16 17 18 19 20
000
FTAK31 PANC 232002 AAA
TAFADQ
TAF AMD
PADQ 232002Z 2320/2418 11008KT P6SM -SHRA FEW010 BKN018 OVC090
      TEMPO 2320/2324 BKN020
     FM240300 09005KT 6SM -RA BR SCT007 OVC017
     FM240900 12005KT 2SM -RA BR BKN007 OVC017=

USA.gov is the U.S. government's official web portal to all federal, state and local government web resources and services.